Pittsfield, IL

1:51 PM CST on February 25, 2018 (GMT -0600)
Pittsfield Penstone Municipal

Weather History for KPPQ - May, 2013

Change the Weather History Date:

Friday, May 24, 2013

  Actual Average (KUIN) Record (KUIN)
Temperature  
Mean Temperature 58 °F -  
Max Temperature 68 °F 74 °F 94 °F (1921)
Min Temperature 47 °F 55 °F 40 °F (1917)
Degree Days  
Heating Degree Days 8    
Growing Degree Days 8 (Base 50)    
Moisture  
Dew Point 44 °F    
Average Humidity 62    
Maximum Humidity 90    
Minimum Humidity 35    
Precipitation  
Precipitation 0.00 in - - ()
Sea Level Pressure  
Sea Level Pressure 30.35 in    
Wind  
Wind Speed 4 mph (East)    
Max Wind Speed 12 mph    
Max Gust Speed -    
Visibility 10 miles    
Events      
Averages and records for this station are not official NWS values.
T = Trace of Precipitation, MM = Missing Value Source: NWS Daily Summary

Daily Weather History Graph

Daily Weather History Graph

Search for Another Location

Airport or City:

Trip Planner

Search our weather history database for the weather conditions in past years. The results will help you decide how hot, cold, wet, or windy it might be!

Date:

Astronomy

May. 24, 2013 Rise Set
Actual Time 5:41 AM CDT 8:18 PM CDT
Civil Twilight 5:10 AM CDT 8:50 PM CDT
Nautical Twilight 4:31 AM CDT 9:29 PM CDT
Astronomical Twilight 3:47 AM CDT 10:13 PM CDT
Moon 8:01 PM CDT (5/24) 5:13 AM CDT (5/24)
Length of Visible Light 15h 39m
Length of Day
14h 37m
Full, 100% of the Moon is Illuminated
May 24
Full
May 24
Full
May 31
Last Quarter
Jun 8
New
Jun 16
First Quarter

Hourly Weather History & Observations

Time (CDT) Temp. Dew Point Humidity Pressure Visibility Wind Dir Wind Speed Gust Speed Precip Events Conditions
12:15 AM 54.0 °F 49.3 °F 84% 30.28 in 10.0 mi Calm Calm - N/A   Clear
12:35 AM 54.0 °F 49.1 °F 84% 30.28 in 10.0 mi East 3.5 mph - N/A   Clear
12:55 AM 53.6 °F 48.7 °F 84% 30.29 in 10.0 mi East 3.5 mph - N/A   Clear
1:15 AM 52.0 °F 48.4 °F 88% 30.29 in 10.0 mi Calm Calm - N/A   Clear
1:35 AM 51.4 °F 47.8 °F 87% 30.28 in 10.0 mi NE 4.6 mph - N/A   Clear
1:55 AM 51.6 °F 47.3 °F 85% 30.28 in 10.0 mi NE 4.6 mph - N/A   Clear
2:15 AM 51.3 °F 47.1 °F 86% 30.29 in 10.0 mi ENE 3.5 mph - N/A   Clear
2:35 AM 50.7 °F 46.6 °F 86% 30.28 in 10.0 mi NE 3.5 mph - N/A   Clear
2:55 AM 50.9 °F 46.6 °F 85% 30.29 in 10.0 mi ENE 4.6 mph - N/A   Clear
3:15 AM 50.5 °F 46.4 °F 86% 30.30 in 10.0 mi ENE 4.6 mph - N/A   Clear
3:35 AM 50.0 °F 46.2 °F 87% 30.30 in 10.0 mi Calm Calm - N/A   Clear
3:55 AM 49.5 °F 45.9 °F 87% 30.30 in 10.0 mi ENE 3.5 mph - N/A   Clear
4:15 AM 49.5 °F 46.0 °F 88% 30.31 in 10.0 mi ENE 3.5 mph - N/A   Clear
4:35 AM 49.1 °F 45.7 °F 88% 30.32 in 10.0 mi ENE 4.6 mph - N/A   Clear
4:55 AM 49.1 °F 45.5 °F 87% 30.33 in 10.0 mi ENE 3.5 mph - N/A   Clear
5:15 AM 48.6 °F 45.5 °F 89% 30.33 in 10.0 mi Calm Calm - N/A   Clear
5:35 AM 49.1 °F 45.3 °F 87% 30.36 in 10.0 mi Calm Calm - N/A   Clear
5:55 AM 47.5 °F 44.4 °F 89% 30.37 in 7.0 mi ENE 3.5 mph - N/A   Clear
6:15 AM 47.7 °F 44.8 °F 90% 30.38 in 5.0 mi ENE 4.6 mph - N/A   Clear
6:35 AM 48.6 °F 45.5 °F 89% 30.39 in 5.0 mi Calm Calm - N/A   Clear
6:55 AM 49.3 °F 45.1 °F 86% 30.40 in 7.0 mi East 6.9 mph - N/A   Clear
7:15 AM 49.5 °F 42.1 °F 76% 30.41 in 10.0 mi East 10.4 mph - N/A   Clear
7:35 AM 49.3 °F 40.1 °F 71% 30.42 in 10.0 mi East 8.1 mph - N/A   Clear
7:55 AM 49.6 °F 38.7 °F 66% 30.41 in 10.0 mi East 10.4 mph - N/A   Clear
8:15 AM 50.2 °F 39.0 °F 66% 30.43 in 10.0 mi ENE 6.9 mph - N/A   Clear
8:35 AM 51.3 °F 39.4 °F 64% 30.43 in 10.0 mi ENE 6.9 mph - N/A   Clear
8:55 AM 52.0 °F 38.7 °F 60% 30.43 in 10.0 mi East 9.2 mph - N/A   Clear
9:15 AM 53.2 °F 39.9 °F 61% 30.43 in 10.0 mi East 6.9 mph - N/A   Clear
9:35 AM 53.6 °F 40.6 °F 62% 30.42 in 10.0 mi East 9.2 mph - N/A   Clear
9:55 AM 55.8 °F 42.8 °F 62% 30.43 in 10.0 mi ESE 8.1 mph - N/A   Clear
10:15 AM 56.3 °F 42.1 °F 59% 30.43 in 10.0 mi East 9.2 mph - N/A   Clear
10:35 AM 57.2 °F 41.9 °F 57% 30.42 in 10.0 mi East 6.9 mph - N/A   Clear
10:55 AM 58.3 °F 42.6 °F 56% 30.42 in 10.0 mi East 8.1 mph - N/A   Clear
11:15 AM 58.8 °F 42.4 °F 55% 30.42 in 10.0 mi East 4.6 mph - N/A   Clear
11:35 AM 60.1 °F 42.4 °F 52% 30.42 in 10.0 mi ESE 8.1 mph - N/A   Clear
11:55 AM 60.3 °F 41.7 °F 50% 30.42 in 10.0 mi Calm Calm - N/A   Clear
12:15 PM 60.8 °F 41.0 °F 48% 30.41 in 10.0 mi ENE 3.5 mph - N/A   Clear
12:35 PM 62.1 °F 40.8 °F 46% 30.41 in 10.0 mi NE 6.9 mph - N/A   Clear
12:55 PM 62.2 °F 40.8 °F 45% 30.40 in 10.0 mi Calm Calm - N/A   Clear
1:15 PM 63.3 °F 41.9 °F 46% 30.40 in 5.0 mi ENE 8.1 mph - N/A   Haze
1:35 PM 63.9 °F 42.8 °F 46% 30.40 in 10.0 mi South 4.6 mph - N/A   Clear
1:55 PM 64.6 °F 40.6 °F 42% 30.40 in 10.0 mi East 5.8 mph - N/A   Clear
2:15 PM 64.4 °F 41.9 °F 44% 30.39 in 10.0 mi SE 4.6 mph - N/A   Clear
2:35 PM 65.5 °F 42.6 °F 43% 30.38 in 10.0 mi SE 5.8 mph - N/A   Clear
2:55 PM 66.2 °F 42.8 °F 43% 30.37 in 10.0 mi SE 6.9 mph - N/A   Clear
3:15 PM 67.3 °F 41.7 °F 39% 30.35 in 10.0 mi East 9.2 mph - N/A   Clear
3:35 PM 66.7 °F 42.4 °F 41% 30.34 in 10.0 mi SE 11.5 mph - N/A   Clear
3:55 PM 67.3 °F 41.9 °F 40% 30.34 in 10.0 mi SE 3.5 mph - N/A   Clear
4:15 PM 67.5 °F 41.9 °F 39% 30.33 in 10.0 mi SE 6.9 mph - N/A   Clear
4:35 PM 68.0 °F 41.0 °F 37% 30.33 in 10.0 mi SE 5.8 mph - N/A   Clear
4:55 PM 67.5 °F 38.8 °F 35% 30.33 in 10.0 mi SSE 5.8 mph - N/A   Clear
5:15 PM 68.0 °F 40.8 °F 37% 30.32 in 10.0 mi East 9.2 mph - N/A   Clear
5:35 PM 67.8 °F 41.0 °F 38% 30.31 in 10.0 mi SE 5.8 mph - N/A   Clear
5:55 PM 68.0 °F 41.7 °F 38% 30.30 in 10.0 mi SE 9.2 mph - N/A   Clear
6:15 PM 67.3 °F 42.6 °F 41% 30.29 in 10.0 mi ESE 8.1 mph - N/A   Clear
6:35 PM 67.1 °F 43.2 °F 42% 30.29 in 10.0 mi SE 8.1 mph - N/A   Clear
6:55 PM 66.6 °F 41.0 °F 39% 30.29 in 10.0 mi SSE 8.1 mph - N/A   Clear
7:15 PM 66.2 °F 42.3 °F 42% 30.29 in 10.0 mi ESE 8.1 mph - N/A   Clear
7:35 PM 65.3 °F 43.2 °F 45% 30.29 in 10.0 mi SSE 5.8 mph - N/A   Clear
7:55 PM 64.2 °F 44.6 °F 49% 30.29 in 10.0 mi SSE 4.6 mph - N/A   Clear
8:15 PM 62.2 °F 45.9 °F 55% 30.29 in 10.0 mi Calm Calm - N/A   Clear
8:35 PM 61.5 °F 45.9 °F 56% 30.29 in 10.0 mi ESE 3.5 mph - N/A   Clear
8:55 PM 60.3 °F 44.1 °F 55% 30.30 in 10.0 mi ESE 3.5 mph - N/A   Clear
9:15 PM 57.4 °F 46.6 °F 67% 30.30 in 10.0 mi East 4.6 mph - N/A   Clear
9:35 PM 57.9 °F 44.6 °F 61% 30.30 in 10.0 mi East 4.6 mph - N/A   Clear
9:55 PM 57.4 °F 45.9 °F 65% 30.31 in 10.0 mi East 3.5 mph - N/A   Clear
10:15 PM 56.5 °F 44.1 °F 63% 30.31 in 10.0 mi East 4.6 mph - N/A   Clear
10:35 PM 56.3 °F 45.3 °F 67% 30.31 in 10.0 mi East 5.8 mph - N/A   Clear
10:55 PM 56.3 °F 44.6 °F 65% 30.32 in 10.0 mi East 5.8 mph - N/A   Clear
11:15 PM 56.5 °F 45.3 °F 66% 30.32 in 10.0 mi East 5.8 mph - N/A   Clear
11:35 PM 56.7 °F 44.8 °F 64% 30.30 in 10.0 mi East 8.1 mph - N/A   Clear
11:55 PM 57.4 °F 44.8 °F 63% 30.29 in 10.0 mi East 8.1 mph - N/A   Clear